| time (UTC) | temp F | wind direction | speed MPH | gust MPH | rain 1hr in | rain 24hr in | rain mn in | humidity % | barometer mb |
| 20260510050909 | 42 | 130 | 0.0 | 2.0 | 0.00 | 0.00 | 0.00 | 76 | 1024.3 |
| 20260510050009 | 42 | 130 | 1.0 | 3.0 | 0.00 | 0.00 | 0.00 | 76 | 1024.3 |
| 20260510045408 | 42 | 130 | 0.0 | 2.0 | 0.00 | 0.00 | 0.00 | 77 | 1024.3 |
| 20260510044529 | 42 | 141 | 3.0 | 8.0 | 0.00 | 0.00 | 0.00 | 77 | 1022.8 |
| 20260510043608 | 42 | 138 | 3.0 | 8.0 | 0.00 | 0.00 | 0.00 | 76 | 1022.8 |
| 20260510042729 | 42 | 118 | 2.0 | 6.0 | 0.00 | 0.00 | 0.00 | 75 | 1022.8 |
| 20260510041808 | 42 | 132 | 2.0 | 7.0 | 0.00 | 0.00 | 0.00 | 74 | 1022.8 |
| 20260510040908 | 42 | 123 | 2.0 | 9.0 | 0.00 | 0.00 | 0.00 | 74 | 1022.8 |
| 20260510040008 | 43 | 134 | 5.0 | 13.0 | 0.00 | 0.00 | 0.00 | 74 | 1022.8 |
| 20260510035408 | 43 | 131 | 4.0 | 13.0 | 0.00 | 0.00 | 0.00 | 74 | 1022.8 |
| 20260510034529 | 43 | 108 | 2.0 | 8.0 | 0.00 | 0.00 | 0.00 | 74 | 1022.8 |
| 20260510033609 | 43 | 153 | 2.0 | 8.0 | 0.00 | 0.00 | 0.00 | 74 | 1022.8 |
| 20260510032708 | 43 | 131 | 3.0 | 9.0 | 0.00 | 0.00 | 0.00 | 73 | 1022.8 |
| 20260510031808 | 44 | 231 | 1.0 | 9.0 | 0.00 | 0.00 | 0.00 | 72 | 1022.8 |
| 20260510030932 | 44 | 86 | 2.0 | 6.0 | 0.00 | 0.00 | 0.00 | 72 | 1022.8 |
| 20260510030029 | 44 | 115 | 2.0 | 8.0 | 0.00 | 0.00 | 0.00 | 70 | 1022.8 |
| 20260510025408 | 44 | 78 | 1.0 | 6.0 | 0.00 | 0.00 | 0.00 | 70 | 1022.8 |
| 20260510024508 | 44 | 71 | 2.0 | 5.0 | 0.00 | 0.00 | 0.00 | 69 | 1018.9 |
| 20260510023629 | 45 | 245 | 2.0 | 7.0 | 0.00 | 0.00 | 0.00 | 67 | 1018.9 |
| 20260510022707 | 46 | 257 | 3.0 | 7.0 | 0.00 | 0.00 | 0.00 | 64 | 1018.9 |
| 20260510021808 | 47 | 121 | 5.0 | 12.0 | 0.00 | 0.00 | 0.00 | 59 | 1018.9 |
| 20260510020908 | 50 | 138 | 6.0 | 15.0 | 0.00 | 0.00 | 0.00 | 52 | 1018.9 |
| 20260510020008 | 52 | 271 | 3.0 | 9.0 | 0.00 | 0.00 | 0.00 | 45 | 1018.9 |
| 20260510015407 | 51 | 267 | 2.0 | 8.0 | 0.00 | 0.00 | 0.00 | 35 | 1018.9 |
| 20260510014508 | 50 | 0 | 0.0 | 0.0 | 0.00 | 0.00 | 0.00 | 32 | 1018.0 |
| 20260510013607 | 51 | 288 | 0.0 | 2.0 | 0.00 | 0.00 | 0.00 | 30 | 1018.0 |
| 20260510012707 | 53 | 288 | 1.0 | 2.0 | 0.00 | 0.00 | 0.00 | 23 | 1018.0 |
| 20260510011808 | 54 | 255 | 1.0 | 5.0 | 0.00 | 0.00 | 0.00 | 21 | 1018.0 |
| 20260510010907 | 55 | 241 | 2.0 | 8.0 | 0.00 | 0.00 | 0.00 | 19 | 1018.0 |
| 20260510010008 | 56 | 247 | 2.0 | 7.0 | 0.00 | 0.00 | 0.00 | 22 | 1018.0 |
| 20260510005428 | 56 | 248 | 2.0 | 7.0 | 0.00 | 0.00 | 0.00 | 20 | 1018.0 |
| 20260510004507 | 57 | 217 | 2.0 | 9.0 | 0.00 | 0.00 | 0.00 | 23 | 1017.4 |
| 20260510003628 | 56 | 199 | 2.0 | 9.0 | 0.00 | 0.00 | 0.00 | 24 | 1017.4 |
| 20260510002708 | 57 | 248 | 2.0 | 8.0 | 0.00 | 0.00 | 0.00 | 23 | 1017.4 |
| 20260510001807 | 58 | 293 | 2.0 | 10.0 | 0.00 | 0.00 | 0.00 | 22 | 1017.4 |
| 20260510000908 | 58 | 279 | 2.0 | 6.0 | 0.00 | 0.00 | 0.00 | 24 | 1017.4 |
| 20260510000029 | 59 | 251 | 2.0 | 6.0 | 0.00 | 0.00 | 0.00 | 25 | 1017.4 |
| 20260509235407 | 59 | 259 | 2.0 | 11.0 | 0.00 | 0.00 | 0.00 | 21 | 1017.4 |
| 20260509234507 | 60 | 246 | 3.0 | 10.0 | 0.00 | 0.00 | 0.00 | 23 | 1016.9 |
| 20260509233607 | 60 | 239 | 2.0 | 6.0 | 0.00 | 0.00 | 0.00 | 21 | 1016.9 |
| 20260509232712 | 60 | 280 | 3.0 | 8.0 | 0.00 | 0.00 | 0.00 | 21 | 1016.9 |
| 20260509231833 | 60 | 229 | 3.0 | 11.0 | 0.00 | 0.00 | 0.00 | 20 | 1016.9 |
| 20260509230913 | 60 | 262 | 3.0 | 9.0 | 0.00 | 0.00 | 0.00 | 21 | 1016.9 |
| 20260509230012 | 61 | 251 | 2.0 | 7.0 | 0.00 | 0.00 | 0.00 | 22 | 1016.9 |
| 20260509225412 | 61 | 247 | 2.0 | 7.0 | 0.00 | 0.00 | 0.00 | 20 | 1016.9 |
| 20260509224512 | 60 | 277 | 3.0 | 9.0 | 0.00 | 0.00 | 0.00 | 22 | 1016.9 |
| 20260509223612 | 61 | 246 | 3.0 | 9.0 | 0.00 | 0.00 | 0.00 | 20 | 1016.9 |
| 20260509222733 | 61 | 261 | 3.0 | 8.0 | 0.00 | 0.00 | 0.00 | 21 | 1016.9 |
| 20260509221812 | 61 | 243 | 3.0 | 12.0 | 0.00 | 0.00 | 0.00 | 21 | 1016.9 |
| 20260509220914 | 61 | 316 | 2.0 | 8.0 | 0.00 | 0.00 | 0.00 | 21 | 1016.9 |
| 20260509220033 | 62 | 280 | 2.0 | 6.0 | 0.00 | 0.00 | 0.00 | 22 | 1016.9 |
| 20260509215432 | 62 | 240 | 2.0 | 6.0 | 0.00 | 0.00 | 0.00 | 21 | 1016.9 |
| 20260509214533 | 62 | 228 | 3.0 | 8.0 | 0.00 | 0.00 | 0.00 | 19 | 1016.9 |
| 20260509213612 | 63 | 273 | 3.0 | 9.0 | 0.00 | 0.00 | 0.00 | 19 | 1016.9 |
| 20260509212712 | 63 | 265 | 3.0 | 9.0 | 0.00 | 0.00 | 0.00 | 22 | 1016.9 |
| 20260509211812 | 62 | 255 | 2.0 | 5.0 | 0.00 | 0.00 | 0.00 | 21 | 1016.9 |
| 20260509210911 | 64 | 254 | 3.0 | 12.0 | 0.00 | 0.00 | 0.00 | 21 | 1016.9 |
| 20260509210012 | 63 | 254 | 2.0 | 8.0 | 0.00 | 0.00 | 0.00 | 22 | 1016.9 |
| 20260509205411 | 63 | 269 | 2.0 | 6.0 | 0.00 | 0.00 | 0.00 | 23 | 1016.9 |
| 20260509204511 | 63 | 254 | 3.0 | 9.0 | 0.00 | 0.00 | 0.00 | 21 | 1016.9 |
| 20260509203612 | 63 | 264 | 2.0 | 6.0 | 0.00 | 0.00 | 0.00 | 22 | 1016.9 |
| 20260509202732 | 63 | 30 | 3.0 | 7.0 | 0.00 | 0.00 | 0.00 | 25 | 1016.9 |
| 20260509201833 | 65 | 50 | 3.0 | 11.0 | 0.00 | 0.00 | 0.00 | 20 | 1016.9 |
| 20260509200911 | 63 | 272 | 3.0 | 17.0 | 0.00 | 0.00 | 0.00 | 23 | 1016.9 |
| 20260509200014 | 65 | 264 | 3.0 | 9.0 | 0.00 | 0.00 | 0.00 | 21 | 1016.9 |
| 20260509195435 | 66 | 314 | 3.0 | 10.0 | 0.00 | 0.00 | 0.00 | 24 | 1016.9 |
| 20260509194511 | 66 | 251 | 4.0 | 12.0 | 0.00 | 0.00 | 0.00 | 21 | 1017.9 |
| 20260509193611 | 66 | 279 | 3.0 | 9.0 | 0.00 | 0.00 | 0.00 | 20 | 1017.9 |
| 20260509192732 | 66 | 282 | 4.0 | 11.0 | 0.00 | 0.00 | 0.00 | 24 | 1017.9 |
| 20260509191811 | 66 | 262 | 3.0 | 11.0 | 0.00 | 0.00 | 0.00 | 22 | 1017.9 |
| 20260509190911 | 66 | 264 | 4.0 | 9.0 | 0.00 | 0.00 | 0.00 | 20 | 1017.9 |
| 20260509190011 | 65 | 249 | 5.0 | 10.0 | 0.00 | 0.00 | 0.00 | 19 | 1017.9 |
| 20260509185432 | 64 | 267 | 4.0 | 10.0 | 0.00 | 0.00 | 0.00 | 21 | 1017.9 |
| 20260509184511 | 65 | 262 | 5.0 | 15.0 | 0.00 | 0.00 | 0.00 | 19 | 1017.9 |
| 20260509183611 | 66 | 306 | 4.0 | 16.0 | 0.00 | 0.00 | 0.00 | 19 | 1017.9 |
| 20260509182711 | 66 | 24 | 3.0 | 9.0 | 0.00 | 0.00 | 0.00 | 23 | 1017.9 |
| 20260509181811 | 65 | 284 | 4.0 | 14.0 | 0.00 | 0.00 | 0.00 | 21 | 1017.9 |
| 20260509180911 | 64 | 267 | 4.0 | 11.0 | 0.00 | 0.00 | 0.00 | 22 | 1017.9 |
| 20260509180032 | 64 | 254 | 5.0 | 11.0 | 0.00 | 0.00 | 0.00 | 21 | 1017.9 |
| 20260509175411 | 64 | 230 | 4.0 | 10.0 | 0.00 | 0.00 | 0.00 | 24 | 1017.9 |
| 20260509174510 | 64 | 20 | 4.0 | 10.0 | 0.00 | 0.00 | 0.00 | 26 | 1017.9 |
| 20260509173611 | 63 | 287 | 4.0 | 10.0 | 0.00 | 0.00 | 0.00 | 24 | 1017.9 |
| 20260509172711 | 62 | 263 | 3.0 | 16.0 | 0.00 | 0.00 | 0.00 | 25 | 1017.9 |
| 20260509171811 | 62 | 311 | 5.0 | 12.0 | 0.00 | 0.00 | 0.00 | 25 | 1017.9 |
| 20260509170910 | 62 | 316 | 5.0 | 11.0 | 0.00 | 0.00 | 0.00 | 25 | 1017.9 |
| 20260509170032 | 61 | 289 | 4.0 | 14.0 | 0.00 | 0.00 | 0.00 | 26 | 1017.9 |
| 20260509165431 | 61 | 286 | 4.0 | 14.0 | 0.00 | 0.00 | 0.00 | 27 | 1017.9 |
| 20260509164511 | 60 | 274 | 5.0 | 18.0 | 0.00 | 0.00 | 0.00 | 25 | 1017.9 |
| 20260509163635 | 60 | 283 | 5.0 | 18.0 | 0.00 | 0.00 | 0.00 | 25 | 1017.9 |
| 20260509162710 | 60 | 251 | 5.0 | 17.0 | 0.00 | 0.00 | 0.00 | 26 | 1017.9 |
| 20260509161833 | 60 | 262 | 5.0 | 16.0 | 0.00 | 0.00 | 0.00 | 27 | 1017.9 |
| 20260509160910 | 59 | 267 | 5.0 | 13.0 | 0.00 | 0.00 | 0.00 | 25 | 1017.9 |
| 20260509160011 | 59 | 300 | 5.0 | 19.0 | 0.00 | 0.00 | 0.00 | 28 | 1017.9 |
| 20260509155411 | 58 | 283 | 5.0 | 19.0 | 0.00 | 0.00 | 0.00 | 28 | 1017.9 |
| 20260509154511 | 58 | 323 | 4.0 | 11.0 | 0.00 | 0.00 | 0.00 | 30 | 1017.9 |
| 20260509153610 | 57 | 25 | 5.0 | 18.0 | 0.00 | 0.00 | 0.00 | 31 | 1017.9 |
| 20260509152710 | 56 | 30 | 4.0 | 18.0 | 0.00 | 0.00 | 0.00 | 31 | 1017.9 |
| 20260509151810 | 54 | 146 | 2.0 | 6.0 | 0.00 | 0.00 | 0.00 | 34 | 1017.9 |
| 20260509150931 | 52 | 18 | 2.0 | 5.0 | 0.00 | 0.00 | 0.00 | 41 | 1017.9 |
| 20260509150028 | 50 | 99 | 2.0 | 6.0 | 0.00 | 0.00 | 0.00 | 44 | 1017.9 |
| 20260509145410 | 48 | 107 | 2.0 | 6.0 | 0.00 | 0.00 | 0.00 | 48 | 1017.9 |
| 20260509144510 | 46 | 45 | 2.0 | 9.0 | 0.00 | 0.00 | 0.00 | 52 | 1017.9 |
| 20260509143610 | 44 | 55 | 3.0 | 6.0 | 0.00 | 0.00 | 0.00 | 60 | 1017.9 |
| 20260509142711 | 41 | 93 | 3.0 | 8.0 | 0.00 | 0.00 | 0.00 | 74 | 1017.9 |
| 20260509141831 | 37 | 108 | 2.0 | 6.0 | 0.00 | 0.00 | 0.00 | 79 | 1017.9 |
| 20260509140931 | 36 | 113 | 1.0 | 2.0 | 0.00 | 0.00 | 0.00 | 82 | 1017.9 |
| 20260509140010 | 36 | 113 | 1.0 | 2.0 | 0.00 | 0.00 | 0.00 | 84 | 1017.9 |
| 20260509135410 | 35 | 124 | 2.0 | 4.0 | 0.00 | 0.00 | 0.00 | 85 | 1017.9 |
| 20260509134531 | 34 | 142 | 1.0 | 5.0 | 0.00 | 0.00 | 0.00 | 85 | 1017.9 |
| 20260509133610 | 34 | 182 | 0.0 | 3.0 | 0.00 | 0.00 | 0.00 | 86 | 1017.9 |
| 20260509132710 | 33 | 181 | 0.0 | 3.0 | 0.00 | 0.00 | 0.00 | 85 | 1017.4 |
| 20260509131810 | 33 | 0 | 0.0 | 0.0 | 0.00 | 0.00 | 0.00 | 85 | 1017.4 |
| 20260509130910 | 33 | 0 | 0.0 | 0.0 | 0.00 | 0.00 | 0.00 | 85 | 1017.4 |
| 20260509130010 | 33 | 0 | 0.0 | 0.0 | 0.00 | 0.00 | 0.00 | 85 | 1017.4 |
| 20260509125410 | 33 | 0 | 0.0 | 0.0 | 0.00 | 0.00 | 0.00 | 85 | 1017.4 |
| 20260509124510 | 33 | 0 | 0.0 | 0.0 | 0.00 | 0.00 | 0.00 | 84 | 1017.4 |
| 20260509123610 | 33 | 0 | 0.0 | 0.0 | 0.00 | 0.00 | 0.00 | 84 | 1017.4 |
| 20260509122710 | 34 | 0 | 0.0 | 0.0 | 0.00 | 0.00 | 0.00 | 84 | 1017.1 |
| 20260509121810 | 34 | 0 | 0.0 | 0.0 | 0.00 | 0.00 | 0.00 | 84 | 1017.1 |
| 20260509120909 | 34 | 0 | 0.0 | 0.0 | 0.00 | 0.00 | 0.00 | 84 | 1017.1 |
| 20260509120010 | 34 | 244 | 0.0 | 2.0 | 0.00 | 0.00 | 0.00 | 83 | 1017.1 |
| 20260509115410 | 34 | 244 | 0.0 | 1.0 | 0.00 | 0.00 | 0.00 | 83 | 1017.1 |
| 20260509114531 | 34 | 0 | 0.0 | 0.0 | 0.00 | 0.00 | 0.00 | 83 | 1017.1 |
| 20260509113609 | 34 | 0 | 0.0 | 0.0 | 0.00 | 0.00 | 0.00 | 82 | 1017.1 |
| 20260509112709 | 35 | 244 | 1.0 | 3.0 | 0.00 | 0.00 | 0.00 | 82 | 1016.8 |
| 20260509111809 | 35 | 0 | 0.0 | 0.0 | 0.00 | 0.00 | 0.00 | 81 | 1016.8 |
| 20260509110909 | 35 | 0 | 0.0 | 0.0 | 0.00 | 0.00 | 0.00 | 82 | 1016.8 |
| 20260509110010 | 35 | 0 | 0.0 | 0.0 | 0.00 | 0.00 | 0.00 | 81 | 1016.8 |
| 20260509105409 | 35 | 0 | 0.0 | 0.0 | 0.00 | 0.00 | 0.00 | 81 | 1016.8 |
| 20260509104509 | 36 | 0 | 0.0 | 0.0 | 0.00 | 0.00 | 0.00 | 81 | 1016.8 |
| 20260509103609 | 36 | 0 | 0.0 | 0.0 | 0.00 | 0.00 | 0.00 | 80 | 1016.8 |
| 20260509102730 | 36 | 0 | 0.0 | 0.0 | 0.00 | 0.00 | 0.00 | 79 | 1016.7 |
| 20260509101809 | 36 | 244 | 0.0 | 1.0 | 0.00 | 0.00 | 0.00 | 78 | 1016.7 |
| 20260509100909 | 37 | 244 | 0.0 | 2.0 | 0.00 | 0.00 | 0.00 | 78 | 1016.7 |
| 20260509100017 | 37 | 244 | 1.0 | 4.0 | 0.00 | 0.00 | 0.00 | 76 | 1016.7 |
| 20260509095409 | 37 | 244 | 0.0 | 3.0 | 0.00 | 0.00 | 0.00 | 77 | 1016.7 |
| 20260509094530 | 37 | 0 | 0.0 | 0.0 | 0.00 | 0.00 | 0.00 | 77 | 1016.5 |
| 20260509093609 | 38 | 244 | 0.0 | 3.0 | 0.00 | 0.00 | 0.00 | 77 | 1016.5 |
| 20260509092709 | 38 | 234 | 0.0 | 2.0 | 0.00 | 0.00 | 0.00 | 77 | 1016.5 |
| 20260509091809 | 38 | 0 | 0.0 | 0.0 | 0.00 | 0.00 | 0.00 | 77 | 1016.5 |
| 20260509090909 | 38 | 234 | 0.0 | 2.0 | 0.00 | 0.00 | 0.00 | 78 | 1016.5 |
| 20260509090010 | 38 | 234 | 0.0 | 2.0 | 0.00 | 0.00 | 0.00 | 78 | 1016.5 |
| 20260509085409 | 38 | 0 | 0.0 | 0.0 | 0.00 | 0.00 | 0.00 | 79 | 1016.5 |
| 20260509084509 | 38 | 234 | 0.0 | 2.0 | 0.00 | 0.00 | 0.00 | 78 | 1016.5 |
| 20260509083610 | 38 | 233 | 1.0 | 3.0 | 0.00 | 0.00 | 0.00 | 78 | 1016.5 |
| 20260509082730 | 38 | 0 | 0.0 | 0.0 | 0.00 | 0.00 | 0.00 | 80 | 1016.5 |
| 20260509081809 | 38 | 155 | 0.0 | 2.0 | 0.00 | 0.00 | 0.00 | 79 | 1016.5 |
| 20260509080909 | 38 | 155 | 0.0 | 2.0 | 0.00 | 0.00 | 0.00 | 80 | 1016.5 |
| 20260509080012 | 38 | 0 | 0.0 | 0.0 | 0.00 | 0.00 | 0.00 | 79 | 1016.5 |
| 20260509075410 | 38 | 0 | 0.0 | 0.0 | 0.00 | 0.00 | 0.00 | 78 | 1016.5 |
| 20260509074509 | 39 | 0 | 0.0 | 0.0 | 0.00 | 0.00 | 0.00 | 77 | 1017.1 |
| 20260509073609 | 39 | 155 | 1.0 | 2.0 | 0.00 | 0.00 | 0.00 | 78 | 1017.1 |
| 20260509072730 | 39 | 155 | 0.0 | 2.0 | 0.00 | 0.00 | 0.00 | 76 | 1017.1 |
| 20260509071810 | 39 | 121 | 1.0 | 3.0 | 0.00 | 0.00 | 0.00 | 77 | 1017.1 |
| 20260509070909 | 39 | 0 | 0.0 | 0.0 | 0.00 | 0.00 | 0.00 | 77 | 1017.1 |
| 20260509070014 | 40 | 0 | 0.0 | 0.0 | 0.00 | 0.00 | 0.00 | 77 | 1017.1 |
| 20260509065412 | 40 | 0 | 0.0 | 0.0 | 0.00 | 0.00 | 0.00 | 78 | 1017.1 |
| 20260509064508 | 40 | 0 | 0.0 | 0.0 | 0.00 | 0.00 | 0.00 | 79 | 1017.2 |
| 20260509063609 | 40 | 0 | 0.0 | 0.0 | 0.00 | 0.00 | 0.00 | 78 | 1017.2 |
| 20260509062709 | 40 | 0 | 0.0 | 0.0 | 0.00 | 0.00 | 0.00 | 78 | 1017.2 |
| 20260509061809 | 40 | 0 | 0.0 | 0.0 | 0.00 | 0.00 | 0.00 | 78 | 1017.2 |
| 20260509060909 | 41 | 0 | 0.0 | 0.0 | 0.00 | 0.00 | 0.00 | 78 | 1017.2 |
| 20260509060013 | 41 | 0 | 0.0 | 0.0 | 0.00 | 0.00 | 0.00 | 79 | 1017.2 |
| 20260509055408 | 41 | 0 | 0.0 | 0.0 | 0.00 | 0.00 | 0.00 | 79 | 1017.2 |
| 20260509054508 | 41 | 0 | 0.0 | 0.0 | 0.00 | 0.00 | 0.00 | 78 | 1018.0 |
| 20260509053608 | 41 | 99 | 0.0 | 3.0 | 0.00 | 0.00 | 0.00 | 78 | 1018.0 |
| 20260509052708 | 42 | 0 | 0.0 | 0.0 | 0.00 | 0.00 | 0.00 | 78 | 1018.0 |
| 20260509051808 | 42 | 0 | 0.0 | 0.0 | 0.00 | 0.00 | 0.00 | 78 | 1018.0 |